Time;durP1;ratioP1;P1;durP2;ratioP2;P2;SDS_P1;SDS_P2;PMS_P1;PMS_P2;Temp;Humidity;BMP_temperature;BMP_pressure;BME280_temperature;BME280_humidity;BME280_pressure;Samples;Min_cycle;Max_cycle;Signal;HPM_P1;HPM_P2
2022/12/17 17:28:38;;;;;;;2.47;2.27;;;;;;;17.67;44.35;99728.17;1952617;72;28074;-61
2022/12/17 17:31:27;;;;;;;2.50;2.30;;;;;;;18.02;44.00;99727.70;1926354;73;28039;-62
2022/12/17 17:34:16;;;;;;;2.35;2.25;;;;;;;18.83;42.93;99733.71;1901856;74;28147;-64
2022/12/17 17:37:04;;;;;;;2.40;2.20;;;;;;;19.54;41.73;99740.88;1902128;75;28075;-64
2022/12/17 17:39:52;;;;;;;2.12;2.02;;;;;;;20.08;40.73;99738.77;1908344;73;28087;-63
2022/12/17 17:42:41;;;;;;;2.13;2.00;;;;;;;20.53;39.78;99742.48;1912414;73;28233;-64
2022/12/17 17:45:29;;;;;;;2.10;1.95;;;;;;;20.90;38.99;99745.79;1901737;73;28167;-62
2022/12/17 17:48:17;;;;;;;2.30;2.10;;;;;;;21.19;38.34;99743.05;1912073;73;28070;-63
2022/12/17 17:51:17;;;;;;;2.25;2.05;;;;;;;21.42;37.76;99739.22;1908601;73;28186;-62
2022/12/17 17:54:05;;;;;;;2.20;2.00;;;;;;;21.61;37.33;99735.48;1901682;75;28327;-63
2022/12/17 17:56:54;;;;;;;2.23;2.13;;;;;;;21.79;36.90;99745.66;1865524;76;28242;-64
2022/12/17 17:59:42;;;;;;;2.20;2.00;;;;;;;21.90;36.61;99747.69;1909846;73;28027;-62
2022/12/17 18:02:32;;;;;;;2.00;1.90;;;;;;;22.06;36.33;99758.58;1912814;73;28099;-63
2022/12/17 18:05:20;;;;;;;2.00;1.90;;;;;;;22.13;36.06;99760.20;1913941;73;28089;-63
2022/12/17 18:08:10;;;;;;;2.10;2.00;;;;;;;22.12;35.87;99744.02;1902222;75;28181;-63
2022/12/17 18:11:00;;;;;;;1.87;1.77;;;;;;;22.25;35.70;99754.83;1924665;73;28645;-64
2022/12/17 18:13:55;;;;;;;1.87;1.77;;;;;;;22.33;35.54;99760.02;1902044;75;28079;-63
2022/12/17 18:16:48;;;;;;;2.33;2.10;;;;;;;22.36;35.45;99763.13;1923970;73;28039;-63
2022/12/17 18:19:36;;;;;;;1.80;1.70;;;;;;;22.39;35.36;99757.73;1902146;75;30062;-62
2022/12/17 18:22:24;;;;;;;1.90;1.80;;;;;;;22.43;35.23;99761.16;1902113;75;28157;-64
2022/12/17 18:25:13;;;;;;;1.82;1.72;;;;;;;22.50;35.13;99766.55;1924660;73;28113;-62
2022/12/17 18:28:02;;;;;;;2.08;1.92;;;;;;;22.51;35.10;99773.19;1902455;73;28141;-63
2022/12/17 18:30:50;;;;;;;2.00;1.90;;;;;;;22.56;34.99;99773.88;1904786;74;28079;-62
2022/12/17 18:33:42;;;;;;;2.10;1.90;;;;;;;22.53;34.97;99775.69;1914492;73;28038;-64
2022/12/17 18:36:33;;;;;;;2.00;1.90;;;;;;;22.58;34.89;99765.73;1922677;74;28144;-62
2022/12/17 18:39:24;;;;;;;2.02;1.92;;;;;;;22.62;34.75;99768.34;1913927;73;28190;-64
2022/12/17 18:45:19;;;;;;;1.95;1.85;;;;;;;22.61;34.83;99779.54;1888990;74;28120;-62
2022/12/17 18:48:07;;;;;;;1.87;1.77;;;;;;;22.63;34.72;99785.09;1889328;75;28174;-62
2022/12/17 18:50:56;;;;;;;2.20;1.95;;;;;;;;;;1889290;75;28083;-63
2022/12/17 18:53:44;;;;;;;1.90;1.80;;;;;;;22.58;34.76;99795.86;1901211;75;28230;-62
2022/12/17 18:56:34;;;;;;;2.00;1.85;;;;;;;22.58;34.78;99797.75;1888854;75;28024;-63
2022/12/17 18:59:25;;;;;;;2.37;1.80;;;;;;;22.63;34.74;99799.31;1852915;75;32127;-62
2022/12/17 19:02:14;;;;;;;2.27;1.95;;;;;;;22.61;34.73;99803.63;1852506;77;28134;-63
2022/12/17 19:05:03;;;;;;;2.10;1.90;;;;;;;22.61;34.74;99805.55;1822764;78;28762;-62
2022/12/17 19:07:51;;;;;;;2.63;1.70;;;;;;;22.61;34.72;99803.63;1841810;77;28580;-62
2022/12/17 19:10:40;;;;;;;2.12;2.00;;;;;;;22.64;34.72;99817.39;1855267;77;28458;-62
2022/12/17 19:13:30;;;;;;;1.80;1.70;;;;;;;22.64;34.66;99816.03;1853833;77;28297;-63
2022/12/17 19:16:23;;;;;;;1.90;1.80;;;;;;;22.64;34.70;99815.50;1881185;75;28150;-62
2022/12/17 19:19:13;;;;;;;1.90;1.80;;;;;;;22.63;34.68;99826.69;1873839;75;28321;-63
2022/12/17 19:22:02;;;;;;;1.80;1.70;;;;;;;22.61;34.73;99828.27;1854813;77;28293;-63
2022/12/17 19:24:50;;;;;;;3.10;1.92;;;;;;;22.64;34.75;99823.72;1852593;75;28196;-64
2022/12/17 19:27:39;;;;;;;1.90;1.80;;;;;;;22.65;34.76;99825.93;1869692;75;28161;-62
2022/12/17 19:30:27;;;;;;;1.95;1.80;;;;;;;22.61;34.86;99828.83;1834616;76;28353;-62
2022/12/17 19:33:15;;;;;;;1.82;1.72;;;;;;;22.64;34.84;99837.93;1826320;77;28204;-62
2022/12/17 19:36:07;;;;;;;1.80;1.70;;;;;;;22.66;34.89;99839.94;1904936;74;28072;-63
2022/12/17 19:38:58;;;;;;;1.72;1.62;;;;;;;22.66;34.95;99839.94;1905705;73;30077;-62
2022/12/17 19:41:49;;;;;;;2.52;1.82;;;;;;;22.67;35.07;99846.55;1894225;74;28145;-62
2022/12/17 19:44:37;;;;;;;1.80;1.70;;;;;;;22.68;35.12;99849.58;1899776;74;28293;-63
2022/12/17 19:47:27;;;;;;;2.22;2.02;;;;;;;22.71;35.27;99848.28;1905382;73;28132;-63
2022/12/17 19:50:15;;;;;;;2.30;2.17;;;;;;;22.71;35.24;99856.50;1890726;74;28541;-64
2022/12/17 19:53:04;;;;;;;2.00;1.90;;;;;;;22.76;35.29;99860.77;1895580;74;28090;-64
2022/12/17 19:55:54;;;;;;;1.95;1.85;;;;;;;22.74;35.32;99856.58;1902367;73;28209;-64
2022/12/17 19:58:44;;;;;;;1.87;1.70;;;;;;;22.75;35.38;99858.27;1894958;74;28114;-63
2022/12/17 20:01:35;;;;;;;2.50;2.15;;;;;;;22.71;35.48;99863.34;1912290;73;28040;-63
2022/12/17 20:04:24;;;;;;;2.22;2.02;;;;;;;22.73;35.47;99860.41;1905431;74;28222;-63
2022/12/17 20:07:12;;;;;;;2.20;2.10;;;;;;;22.72;35.50;99860.92;1894035;74;28681;-64
2022/12/17 20:10:01;;;;;;;2.17;2.08;;;;;;;22.67;35.59;99853.92;1909696;73;31156;-65
2022/12/17 20:12:49;;;;;;;2.25;2.05;;;;;;;22.73;35.45;99859.88;1889679;74;28155;-62
2022/12/17 20:15:38;;;;;;;2.17;1.98;;;;;;;22.74;35.51;99860.69;1902265;73;28143;-62
2022/12/17 20:18:26;;;;;;;2.90;2.23;;;;;;;22.74;35.51;99864.27;1897177;74;28133;-63
2022/12/17 20:21:15;;;;;;;2.40;2.08;;;;;;;22.77;35.50;99869.83;1898784;74;28154;-64
2022/12/17 20:24:04;;;;;;;2.40;2.20;;;;;;;22.73;35.59;99885.89;1913841;73;28202;-64
2022/12/17 20:26:54;;;;;;;2.30;2.10;;;;;;;22.74;35.55;99895.77;1900533;75;28096;-65
2022/12/17 20:29:42;;;;;;;2.22;2.02;;;;;;;22.72;35.69;99903.38;1907638;73;28237;-65
2022/12/17 20:32:31;;;;;;;2.45;2.25;;;;;;;22.78;35.59;99906.56;1910672;73;28075;-65
2022/12/17 20:35:20;;;;;;;2.15;2.00;;;;;;;22.78;35.52;99907.13;1913746;73;28038;-65
2022/12/17 20:38:08;;;;;;;2.22;2.05;;;;;;;22.78;35.52;99913.42;1871941;75;28166;-65
2022/12/17 20:40:57;;;;;;;2.77;2.20;;;;;;;22.77;35.51;99914.50;1895036;75;28125;-64
2022/12/17 20:43:46;;;;;;;2.62;2.42;;;;;;;22.76;35.61;99918.81;1904016;73;28228;-64
2022/12/17 20:46:39;;;;;;;2.50;2.30;;;;;;;22.80;35.75;99922.24;1915899;73;28151;-67
2022/12/17 20:49:28;;;;;;;2.45;2.25;;;;;;;22.80;35.64;99930.45;1906170;73;28099;-66
2022/12/17 20:52:16;;;;;;;2.47;2.27;;;;;;;22.84;35.56;99935.81;1909133;73;28236;-66
2022/12/17 20:55:06;;;;;;;2.50;2.30;;;;;;;22.86;35.52;99936.95;1864582;75;28218;-65
2022/12/17 20:57:54;;;;;;;2.55;2.35;;;;;;;22.86;35.46;99935.58;1906813;73;28200;-66
2022/12/17 21:00:43;;;;;;;2.23;2.03;;;;;;;22.85;35.46;99932.00;1921967;73;28223;-65
2022/12/17 21:03:31;;;;;;;2.47;2.20;;;;;;;22.84;35.47;99940.45;1916783;73;28034;-64
2022/12/17 21:06:22;;;;;;;2.50;2.12;;;;;;;22.82;35.56;99951.64;1897497;75;28184;-64
2022/12/17 21:09:12;;;;;;;2.45;2.20;;;;;;;22.84;35.45;99942.66;1904714;73;30139;-68
2022/12/17 21:12:00;;;;;;;2.85;2.17;;;;;;;22.79;35.68;99941.13;1900784;73;28216;-67
2022/12/17 21:14:49;;;;;;;2.50;2.30;;;;;;;22.81;35.58;99944.47;1917098;73;28183;-66
2022/12/17 21:17:37;;;;;;;2.20;2.00;;;;;;;22.83;35.73;99941.50;1910065;73;28088;-65
2022/12/17 21:20:26;;;;;;;2.50;2.30;;;;;;;22.80;35.68;99952.38;1900876;73;28079;-71
2022/12/17 21:23:14;;;;;;;2.20;2.00;;;;;;;22.80;35.63;99959.22;1912811;73;28156;-66
2022/12/17 21:26:08;;;;;;;3.70;2.20;;;;;;;22.80;35.59;99958.41;1919276;73;28310;-65
2022/12/17 21:28:57;;;;;;;2.40;2.20;;;;;;;22.86;35.55;99956.13;1906739;73;28117;-67
2022/12/17 21:31:48;;;;;;;2.25;2.10;;;;;;;22.84;35.57;99954.14;1905614;73;28196;-67
2022/12/17 21:34:36;;;;;;;2.40;2.20;;;;;;;22.84;35.54;99954.98;1906384;73;28170;-70
2022/12/17 21:37:25;;;;;;;2.33;2.12;;;;;;;22.84;35.59;99966.47;1878845;75;28340;-65
2022/12/17 21:40:13;;;;;;;3.33;2.20;;;;;;;22.91;35.49;99968.62;1929313;73;28122;-63
2022/12/17 21:43:02;;;;;;;2.40;2.20;;;;;;;22.78;35.58;99964.09;1922827;73;28329;-64
2022/12/17 21:45:53;;;;;;;2.25;2.05;;;;;;;22.84;35.58;99988.38;1900967;73;28140;-65
2022/12/17 21:48:42;;;;;;;2.40;2.20;;;;;;;22.83;35.65;99990.80;1904371;73;28286;-64
2022/12/17 21:51:32;;;;;;;2.12;2.02;;;;;;;22.81;35.64;99982.82;1913674;73;28164;-65
2022/12/17 21:54:20;;;;;;;2.52;2.33;;;;;;;22.77;35.65;99988.97;1919636;73;28188;-63
2022/12/17 21:57:09;;;;;;;2.00;1.90;;;;;;;22.73;35.64;99991.86;1908863;73;28204;-64
2022/12/17 21:59:57;;;;;;;2.40;2.20;;;;;;;22.81;35.60;100000.63;1919244;73;28522;-62
2022/12/17 22:02:47;;;;;;;3.02;2.65;;;;;;;22.81;35.64;99999.25;1911334;73;28191;-65
2022/12/17 22:05:38;;;;;;;2.12;2.02;;;;;;;22.82;35.72;99991.36;1908096;73;28056;-64
2022/12/17 22:08:27;;;;;;;2.60;2.40;;;;;;;22.84;35.77;100000.70;1843838;76;28280;-67
2022/12/17 22:11:19;;;;;;;2.30;2.10;;;;;;;22.87;35.75;100011.23;1901116;73;28140;-69
2022/12/17 22:14:10;;;;;;;2.27;2.05;;;;;;;22.86;35.70;100009.54;1917104;73;28072;-67
2022/12/17 22:16:59;;;;;;;2.58;2.10;;;;;;;22.88;35.71;100020.58;1901432;73;28133;-67
2022/12/17 22:19:47;;;;;;;2.35;2.25;;;;;;;22.91;35.69;100017.41;1918239;73;28169;-65
2022/12/17 22:22:36;;;;;;;2.80;2.47;;;;;;;22.95;35.65;100014.52;1901105;73;28165;-68
2022/12/17 22:25:25;;;;;;;2.40;2.30;;;;;;;22.95;35.71;100023.26;1908980;73;28216;-67
2022/12/17 22:28:13;;;;;;;2.45;2.25;;;;;;;22.91;35.80;100026.99;1907678;73;28104;-67
2022/12/17 22:34:13;;;;;;;2.70;2.37;;;;;;;22.81;35.97;100032.65;1901686;73;28119;-67
2022/12/17 22:37:01;;;;;;;3.15;2.20;;;;;;;22.77;36.10;100027.31;1904924;73;28293;-65
2022/12/17 22:39:50;;;;;;;3.17;2.25;;;;;;;22.76;36.08;100029.20;1904595;73;28027;-65
2022/12/17 22:45:45;;;;;;;4.30;2.40;;;;;;;22.77;36.06;100030.91;1857864;75;28239;-67
2022/12/17 22:48:34;;;;;;;2.58;2.37;;;;;;;22.73;36.10;100036.52;1902990;73;28639;-66
2022/12/17 22:51:24;;;;;;;2.50;2.30;;;;;;;22.73;36.13;100032.94;1908746;73;28123;-70
2022/12/17 22:54:13;;;;;;;2.58;2.37;;;;;;;22.76;36.13;100038.80;1904771;73;28196;-70
2022/12/17 22:57:02;;;;;;;2.60;2.40;;;;;;;22.74;36.15;100029.97;1915434;73;28034;-70
2022/12/17 22:59:50;;;;;;;2.58;2.30;;;;;;;22.74;36.14;100035.45;1909144;73;28174;-70
2022/12/17 23:02:39;;;;;;;3.62;2.40;;;;;;;22.69;36.21;100038.00;1916382;73;28030;-70
2022/12/17 23:05:29;;;;;;;2.10;2.00;;;;;;;22.74;36.20;100042.29;1908030;73;28266;-68
2022/12/17 23:08:17;;;;;;;2.17;2.00;;;;;;;22.75;36.20;100045.35;1915200;73;28034;-70
2022/12/17 23:11:11;;;;;;;2.42;2.22;;;;;;;22.77;36.08;100049.23;1878942;75;28168;-71
2022/12/17 23:14:00;;;;;;;2.85;2.40;;;;;;;22.78;36.10;100060.50;1908324;73;28369;-73
2022/12/17 23:16:48;;;;;;;2.27;2.15;;;;;;;22.82;36.03;100061.20;1906516;73;28277;-70
2022/12/17 23:19:37;;;;;;;2.50;2.30;;;;;;;22.83;36.01;100062.02;1912610;73;28180;-71
2022/12/17 23:22:25;;;;;;;2.40;2.20;;;;;;;22.83;36.00;100063.39;1902028;73;28208;-72
2022/12/17 23:25:14;;;;;;;2.87;2.20;;;;;;;22.88;35.94;100061.67;1901207;75;39035;-72
2022/12/17 23:28:03;;;;;;;2.50;2.30;;;;;;;22.87;35.87;100064.64;1875855;75;28219;-70
2022/12/17 23:30:52;;;;;;;2.27;2.08;;;;;;;22.88;35.90;100068.52;1901615;73;28101;-71
2022/12/17 23:33:41;;;;;;;2.20;2.10;;;;;;;22.89;35.82;100070.73;1903058;73;28177;-70
2022/12/17 23:36:29;;;;;;;2.10;2.00;;;;;;;22.89;35.78;100076.22;1864467;76;28380;-70
2022/12/17 23:39:18;;;;;;;2.50;2.30;;;;;;;22.91;35.77;100083.16;1925089;73;28055;-71
2022/12/17 23:42:06;;;;;;;2.05;1.85;;;;;;;22.74;36.00;100076.53;1901061;75;28075;-71
2022/12/17 23:44:55;;;;;;;3.70;2.42;;;;;;;22.59;36.21;100081.45;1909225;73;28067;-67
2022/12/17 23:47:43;;;;;;;2.75;2.20;;;;;;;22.53;36.46;100088.64;1922387;73;28121;-71
2022/12/17 23:50:31;;;;;;;4.03;2.30;;;;;;;22.63;36.45;100093.15;1901281;75;28181;-72
2022/12/17 23:53:19;;;;;;;3.00;2.17;;;;;;;22.73;36.56;100091.30;1903911;73;28117;-72
2022/12/17 23:56:18;;;;;;;5.00;2.40;;;;;;;22.79;36.56;100094.51;1901238;73;28304;-72
2022/12/17 23:59:06;;;;;;;2.72;2.30;;;;;;;22.84;36.50;100096.06;1906109;73;28191;-71
